sensor_id;sensor_type;location;lat;lon;timestamp;P1;durP1;ratioP1;P2;durP2;ratioP2
73239;SDS011;61452;40.054;4.110;2023-02-27T00:02:13;19.52;;;3.90;;
73239;SDS011;61452;40.054;4.110;2023-02-27T00:07:15;13.98;;;3.67;;
73239;SDS011;61452;40.054;4.110;2023-02-27T00:12:18;16.05;;;4.13;;
73239;SDS011;61452;40.054;4.110;2023-02-27T00:17:20;14.85;;;4.22;;
73239;SDS011;61452;40.054;4.110;2023-02-27T00:22:26;16.73;;;4.90;;
73239;SDS011;61452;40.054;4.110;2023-02-27T00:27:28;19.13;;;4.30;;
73239;SDS011;61452;40.054;4.110;2023-02-27T00:32:31;15.43;;;4.15;;
73239;SDS011;61452;40.054;4.110;2023-02-27T00:37:34;19.63;;;4.00;;
73239;SDS011;61452;40.054;4.110;2023-02-27T00:42:37;13.48;;;3.50;;
73239;SDS011;61452;40.054;4.110;2023-02-27T00:47:41;21.65;;;3.88;;
73239;SDS011;61452;40.054;4.110;2023-02-27T00:52:43;17.45;;;4.32;;
73239;SDS011;61452;40.054;4.110;2023-02-27T00:57:45;17.92;;;4.93;;
73239;SDS011;61452;40.054;4.110;2023-02-27T01:02:47;11.85;;;3.20;;
73239;SDS011;61452;40.054;4.110;2023-02-27T01:07:50;18.17;;;4.30;;
73239;SDS011;61452;40.054;4.110;2023-02-27T01:12:52;20.35;;;4.25;;
73239;SDS011;61452;40.054;4.110;2023-02-27T01:17:54;22.73;;;5.70;;
73239;SDS011;61452;40.054;4.110;2023-02-27T01:22:56;24.42;;;5.75;;
73239;SDS011;61452;40.054;4.110;2023-02-27T01:27:58;17.08;;;4.18;;
73239;SDS011;61452;40.054;4.110;2023-02-27T01:33:01;16.83;;;4.57;;
73239;SDS011;61452;40.054;4.110;2023-02-27T01:38:03;16.73;;;3.75;;
73239;SDS011;61452;40.054;4.110;2023-02-27T01:43:06;18.95;;;5.65;;
73239;SDS011;61452;40.054;4.110;2023-02-27T01:48:24;15.27;;;4.07;;
73239;SDS011;61452;40.054;4.110;2023-02-27T01:58:35;21.75;;;6.05;;
73239;SDS011;61452;40.054;4.110;2023-02-27T02:03:40;22.63;;;3.83;;
73239;SDS011;61452;40.054;4.110;2023-02-27T02:08:52;13.95;;;4.68;;
73239;SDS011;61452;40.054;4.110;2023-02-27T02:13:57;19.88;;;4.32;;
73239;SDS011;61452;40.054;4.110;2023-02-27T02:29:45;11.90;;;3.60;;
73239;SDS011;61452;40.054;4.110;2023-02-27T02:40:54;15.52;;;4.30;;
73239;SDS011;61452;40.054;4.110;2023-02-27T02:46:26;18.05;;;3.95;;
73239;SDS011;61452;40.054;4.110;2023-02-27T02:51:52;16.13;;;3.97;;
73239;SDS011;61452;40.054;4.110;2023-02-27T03:03:11;18.90;;;3.95;;
73239;SDS011;61452;40.054;4.110;2023-02-27T03:08:32;12.23;;;3.75;;
73239;SDS011;61452;40.054;4.110;2023-02-27T03:18:58;19.17;;;3.92;;
73239;SDS011;61452;40.054;4.110;2023-02-27T03:24:07;18.08;;;3.83;;
73239;SDS011;61452;40.054;4.110;2023-02-27T03:29:15;17.92;;;4.40;;
73239;SDS011;61452;40.054;4.110;2023-02-27T03:34:34;16.70;;;4.75;;
73239;SDS011;61452;40.054;4.110;2023-02-27T03:45:23;21.98;;;4.03;;
73239;SDS011;61452;40.054;4.110;2023-02-27T03:50:52;23.25;;;4.63;;
73239;SDS011;61452;40.054;4.110;2023-02-27T03:55:55;22.60;;;4.00;;
73239;SDS011;61452;40.054;4.110;2023-02-27T04:01:00;17.73;;;4.28;;
73239;SDS011;61452;40.054;4.110;2023-02-27T04:06:02;16.67;;;4.28;;
73239;SDS011;61452;40.054;4.110;2023-02-27T04:16:49;19.17;;;3.90;;
73239;SDS011;61452;40.054;4.110;2023-02-27T04:22:13;14.70;;;4.20;;
73239;SDS011;61452;40.054;4.110;2023-02-27T04:32:33;19.92;;;4.13;;
73239;SDS011;61452;40.054;4.110;2023-02-27T04:37:42;13.50;;;3.72;;
73239;SDS011;61452;40.054;4.110;2023-02-27T04:42:50;14.13;;;3.58;;
73239;SDS011;61452;40.054;4.110;2023-02-27T04:47:59;18.50;;;5.18;;
73239;SDS011;61452;40.054;4.110;2023-02-27T04:53:11;12.93;;;3.55;;
73239;SDS011;61452;40.054;4.110;2023-02-27T04:58:31;17.42;;;3.78;;
73239;SDS011;61452;40.054;4.110;2023-02-27T05:03:38;14.90;;;3.55;;
73239;SDS011;61452;40.054;4.110;2023-02-27T05:09:00;16.40;;;3.95;;
73239;SDS011;61452;40.054;4.110;2023-02-27T05:14:17;20.52;;;4.38;;
73239;SDS011;61452;40.054;4.110;2023-02-27T05:19:22;19.15;;;4.93;;
73239;SDS011;61452;40.054;4.110;2023-02-27T05:34:52;14.20;;;3.85;;
73239;SDS011;61452;40.054;4.110;2023-02-27T05:39:59;14.48;;;3.70;;
73239;SDS011;61452;40.054;4.110;2023-02-27T05:45:10;13.32;;;4.32;;
73239;SDS011;61452;40.054;4.110;2023-02-27T05:55:34;14.88;;;3.85;;
73239;SDS011;61452;40.054;4.110;2023-02-27T06:00:43;9.30;;;2.72;;
73239;SDS011;61452;40.054;4.110;2023-02-27T06:05:53;10.75;;;3.15;;
73239;SDS011;61452;40.054;4.110;2023-02-27T06:10:58;13.85;;;3.25;;
73239;SDS011;61452;40.054;4.110;2023-02-27T06:16:00;16.52;;;3.30;;
73239;SDS011;61452;40.054;4.110;2023-02-27T06:21:02;13.85;;;3.78;;
73239;SDS011;61452;40.054;4.110;2023-02-27T06:26:05;15.68;;;3.97;;
73239;SDS011;61452;40.054;4.110;2023-02-27T06:31:07;14.35;;;3.80;;
73239;SDS011;61452;40.054;4.110;2023-02-27T06:36:09;16.10;;;4.10;;
73239;SDS011;61452;40.054;4.110;2023-02-27T06:41:11;16.40;;;3.47;;
73239;SDS011;61452;40.054;4.110;2023-02-27T06:46:14;12.75;;;3.58;;
73239;SDS011;61452;40.054;4.110;2023-02-27T06:51:16;13.73;;;3.22;;
73239;SDS011;61452;40.054;4.110;2023-02-27T06:56:18;17.00;;;3.65;;
73239;SDS011;61452;40.054;4.110;2023-02-27T07:01:20;10.85;;;2.95;;
73239;SDS011;61452;40.054;4.110;2023-02-27T07:06:24;20.08;;;3.90;;
73239;SDS011;61452;40.054;4.110;2023-02-27T07:11:46;11.95;;;3.78;;
73239;SDS011;61452;40.054;4.110;2023-02-27T07:16:48;12.20;;;2.97;;
73239;SDS011;61452;40.054;4.110;2023-02-27T07:21:54;15.60;;;3.53;;
73239;SDS011;61452;40.054;4.110;2023-02-27T07:26:56;15.38;;;3.53;;
73239;SDS011;61452;40.054;4.110;2023-02-27T07:31:58;16.85;;;3.92;;
73239;SDS011;61452;40.054;4.110;2023-02-27T07:37:02;11.50;;;2.60;;
73239;SDS011;61452;40.054;4.110;2023-02-27T07:42:04;14.40;;;3.65;;
73239;SDS011;61452;40.054;4.110;2023-02-27T07:47:07;19.55;;;4.43;;
73239;SDS011;61452;40.054;4.110;2023-02-27T07:52:09;17.95;;;3.20;;
73239;SDS011;61452;40.054;4.110;2023-02-27T07:57:11;16.25;;;3.60;;
73239;SDS011;61452;40.054;4.110;2023-02-27T08:02:14;15.00;;;4.28;;
73239;SDS011;61452;40.054;4.110;2023-02-27T08:07:16;13.57;;;3.17;;
73239;SDS011;61452;40.054;4.110;2023-02-27T08:12:18;9.20;;;3.08;;
73239;SDS011;61452;40.054;4.110;2023-02-27T08:17:21;11.38;;;3.05;;
73239;SDS011;61452;40.054;4.110;2023-02-27T08:22:23;13.07;;;3.38;;
73239;SDS011;61452;40.054;4.110;2023-02-27T08:27:25;16.38;;;3.40;;
73239;SDS011;61452;40.054;4.110;2023-02-27T08:32:27;12.43;;;2.80;;
73239;SDS011;61452;40.054;4.110;2023-02-27T08:37:29;10.43;;;2.50;;
73239;SDS011;61452;40.054;4.110;2023-02-27T08:42:32;12.38;;;2.45;;
73239;SDS011;61452;40.054;4.110;2023-02-27T08:47:35;12.63;;;2.75;;
73239;SDS011;61452;40.054;4.110;2023-02-27T08:52:37;8.40;;;2.38;;
73239;SDS011;61452;40.054;4.110;2023-02-27T08:57:40;10.48;;;2.33;;
73239;SDS011;61452;40.054;4.110;2023-02-27T09:02:42;11.32;;;2.55;;
73239;SDS011;61452;40.054;4.110;2023-02-27T09:07:44;11.52;;;2.40;;
73239;SDS011;61452;40.054;4.110;2023-02-27T09:12:46;7.10;;;2.35;;
73239;SDS011;61452;40.054;4.110;2023-02-27T09:17:50;10.70;;;2.33;;
73239;SDS011;61452;40.054;4.110;2023-02-27T09:22:52;7.78;;;1.98;;
73239;SDS011;61452;40.054;4.110;2023-02-27T09:27:54;11.55;;;2.30;;
73239;SDS011;61452;40.054;4.110;2023-02-27T09:32:57;10.13;;;2.47;;
73239;SDS011;61452;40.054;4.110;2023-02-27T09:37:59;10.30;;;2.65;;
73239;SDS011;61452;40.054;4.110;2023-02-27T09:43:02;8.10;;;2.25;;
73239;SDS011;61452;40.054;4.110;2023-02-27T09:48:59;6.95;;;2.00;;
73239;SDS011;61452;40.054;4.110;2023-02-27T09:53:48;13.50;;;2.33;;
73239;SDS011;61452;40.054;4.110;2023-02-27T09:59:03;10.70;;;2.22;;
73239;SDS011;61452;40.054;4.110;2023-02-27T10:04:34;10.75;;;2.60;;
73239;SDS011;61452;40.054;4.110;2023-02-27T10:09:44;9.98;;;2.20;;
73239;SDS011;61452;40.054;4.110;2023-02-27T10:14:58;10.98;;;2.63;;
73239;SDS011;61452;40.054;4.110;2023-02-27T10:20:07;10.52;;;2.30;;
73239;SDS011;61452;40.054;4.110;2023-02-27T10:25:17;9.60;;;1.83;;
73239;SDS011;61452;40.054;4.110;2023-02-27T10:30:32;9.13;;;2.13;;
73239;SDS011;61452;40.054;4.110;2023-02-27T10:35:39;7.88;;;2.00;;
73239;SDS011;61452;40.054;4.110;2023-02-27T10:40:46;14.13;;;2.50;;
73239;SDS011;61452;40.054;4.110;2023-02-27T10:45:49;6.50;;;2.03;;
73239;SDS011;61452;40.054;4.110;2023-02-27T10:50:51;8.45;;;2.20;;
73239;SDS011;61452;40.054;4.110;2023-02-27T10:56:01;11.77;;;2.05;;
73239;SDS011;61452;40.054;4.110;2023-02-27T11:01:06;10.35;;;1.92;;
73239;SDS011;61452;40.054;4.110;2023-02-27T11:06:12;9.10;;;2.42;;
73239;SDS011;61452;40.054;4.110;2023-02-27T11:11:26;16.27;;;2.47;;
73239;SDS011;61452;40.054;4.110;2023-02-27T11:16:29;9.85;;;2.20;;
73239;SDS011;61452;40.054;4.110;2023-02-27T11:22:05;6.10;;;1.70;;
73239;SDS011;61452;40.054;4.110;2023-02-27T11:27:24;4.97;;;2.08;;
73239;SDS011;61452;40.054;4.110;2023-02-27T11:32:36;9.82;;;1.88;;
73239;SDS011;61452;40.054;4.110;2023-02-27T11:37:42;7.30;;;1.83;;
73239;SDS011;61452;40.054;4.110;2023-02-27T11:42:51;9.93;;;1.95;;
73239;SDS011;61452;40.054;4.110;2023-02-27T11:47:58;7.10;;;1.80;;
73239;SDS011;61452;40.054;4.110;2023-02-27T11:53:19;11.57;;;1.65;;
73239;SDS011;61452;40.054;4.110;2023-02-27T11:59:10;9.50;;;1.77;;
73239;SDS011;61452;40.054;4.110;2023-02-27T12:14:47;6.32;;;1.30;;
73239;SDS011;61452;40.054;4.110;2023-02-27T12:36:18;5.55;;;1.50;;
73239;SDS011;61452;40.054;4.110;2023-02-27T12:57:20;11.52;;;2.00;;
73239;SDS011;61452;40.054;4.110;2023-02-27T13:02:33;7.28;;;1.67;;
73239;SDS011;61452;40.054;4.110;2023-02-27T13:07:40;9.55;;;1.92;;
73239;SDS011;61452;40.054;4.110;2023-02-27T13:12:54;9.35;;;1.60;;
73239;SDS011;61452;40.054;4.110;2023-02-27T13:28:36;6.10;;;1.63;;
73239;SDS011;61452;40.054;4.110;2023-02-27T13:34:40;10.98;;;1.80;;
73239;SDS011;61452;40.054;4.110;2023-02-27T13:44:46;9.65;;;1.98;;
73239;SDS011;61452;40.054;4.110;2023-02-27T13:49:48;9.23;;;1.85;;
73239;SDS011;61452;40.054;4.110;2023-02-27T13:54:50;6.60;;;1.70;;
73239;SDS011;61452;40.054;4.110;2023-02-27T14:00:03;9.20;;;2.15;;
73239;SDS011;61452;40.054;4.110;2023-02-27T14:05:16;9.45;;;1.90;;
73239;SDS011;61452;40.054;4.110;2023-02-27T14:10:30;14.48;;;2.17;;
73239;SDS011;61452;40.054;4.110;2023-02-27T14:30:51;9.88;;;2.03;;
73239;SDS011;61452;40.054;4.110;2023-02-27T14:36:08;9.48;;;2.72;;
73239;SDS011;61452;40.054;4.110;2023-02-27T14:41:21;14.38;;;2.70;;
73239;SDS011;61452;40.054;4.110;2023-02-27T14:51:39;9.95;;;2.63;;
73239;SDS011;61452;40.054;4.110;2023-02-27T14:56:51;11.35;;;2.70;;
73239;SDS011;61452;40.054;4.110;2023-02-27T15:01:55;12.60;;;2.95;;
73239;SDS011;61452;40.054;4.110;2023-02-27T15:06:59;9.73;;;2.50;;
73239;SDS011;61452;40.054;4.110;2023-02-27T15:12:02;10.05;;;2.47;;
73239;SDS011;61452;40.054;4.110;2023-02-27T15:17:27;13.88;;;2.90;;
73239;SDS011;61452;40.054;4.110;2023-02-27T15:22:35;8.75;;;2.22;;
73239;SDS011;61452;40.054;4.110;2023-02-27T15:27:40;13.20;;;2.40;;
73239;SDS011;61452;40.054;4.110;2023-02-27T15:32:43;10.13;;;2.42;;
73239;SDS011;61452;40.054;4.110;2023-02-27T15:37:47;10.73;;;2.75;;
73239;SDS011;61452;40.054;4.110;2023-02-27T15:42:53;15.40;;;3.80;;
73239;SDS011;61452;40.054;4.110;2023-02-27T15:47:57;13.23;;;2.63;;
73239;SDS011;61452;40.054;4.110;2023-02-27T15:53:04;10.48;;;3.30;;
73239;SDS011;61452;40.054;4.110;2023-02-27T15:59:02;18.10;;;3.45;;
73239;SDS011;61452;40.054;4.110;2023-02-27T16:04:05;13.10;;;3.13;;
73239;SDS011;61452;40.054;4.110;2023-02-27T16:14:42;13.30;;;2.90;;
73239;SDS011;61452;40.054;4.110;2023-02-27T16:19:45;13.77;;;2.78;;
73239;SDS011;61452;40.054;4.110;2023-02-27T16:24:49;16.30;;;2.90;;
73239;SDS011;61452;40.054;4.110;2023-02-27T16:29:53;18.77;;;3.90;;
73239;SDS011;61452;40.054;4.110;2023-02-27T16:35:04;17.38;;;3.80;;
73239;SDS011;61452;40.054;4.110;2023-02-27T16:40:11;16.63;;;4.05;;
73239;SDS011;61452;40.054;4.110;2023-02-27T16:45:24;16.05;;;4.55;;
73239;SDS011;61452;40.054;4.110;2023-02-27T16:55:39;15.38;;;3.55;;
73239;SDS011;61452;40.054;4.110;2023-02-27T17:00:44;16.30;;;3.95;;
73239;SDS011;61452;40.054;4.110;2023-02-27T17:05:46;19.60;;;3.75;;
73239;SDS011;61452;40.054;4.110;2023-02-27T17:10:49;19.90;;;4.47;;
73239;SDS011;61452;40.054;4.110;2023-02-27T17:15:53;13.85;;;3.03;;
73239;SDS011;61452;40.054;4.110;2023-02-27T17:20:58;15.73;;;3.88;;
73239;SDS011;61452;40.054;4.110;2023-02-27T17:26:01;14.68;;;3.72;;
73239;SDS011;61452;40.054;4.110;2023-02-27T17:31:13;20.02;;;4.15;;
73239;SDS011;61452;40.054;4.110;2023-02-27T17:36:16;22.02;;;4.47;;
73239;SDS011;61452;40.054;4.110;2023-02-27T17:41:18;20.95;;;4.85;;
73239;SDS011;61452;40.054;4.110;2023-02-27T17:46:21;18.52;;;4.35;;
73239;SDS011;61452;40.054;4.110;2023-02-27T17:56:28;17.13;;;4.13;;
73239;SDS011;61452;40.054;4.110;2023-02-27T18:01:31;19.55;;;4.75;;
73239;SDS011;61452;40.054;4.110;2023-02-27T18:06:33;22.40;;;4.70;;
73239;SDS011;61452;40.054;4.110;2023-02-27T18:11:35;19.08;;;4.53;;
73239;SDS011;61452;40.054;4.110;2023-02-27T18:16:38;19.02;;;4.30;;
73239;SDS011;61452;40.054;4.110;2023-02-27T18:21:40;20.48;;;4.00;;
73239;SDS011;61452;40.054;4.110;2023-02-27T18:26:47;22.27;;;4.40;;
73239;SDS011;61452;40.054;4.110;2023-02-27T18:31:49;25.67;;;6.13;;
73239;SDS011;61452;40.054;4.110;2023-02-27T18:36:54;23.92;;;4.53;;
73239;SDS011;61452;40.054;4.110;2023-02-27T18:41:58;18.25;;;4.20;;
73239;SDS011;61452;40.054;4.110;2023-02-27T18:47:01;20.67;;;4.72;;
73239;SDS011;61452;40.054;4.110;2023-02-27T18:52:03;20.10;;;4.35;;
73239;SDS011;61452;40.054;4.110;2023-02-27T18:57:05;29.13;;;6.40;;
73239;SDS011;61452;40.054;4.110;2023-02-27T19:02:12;29.98;;;5.45;;
73239;SDS011;61452;40.054;4.110;2023-02-27T19:07:16;18.40;;;3.95;;
73239;SDS011;61452;40.054;4.110;2023-02-27T19:12:18;22.15;;;4.43;;
73239;SDS011;61452;40.054;4.110;2023-02-27T19:17:20;28.80;;;5.70;;
73239;SDS011;61452;40.054;4.110;2023-02-27T19:22:23;22.77;;;5.20;;
73239;SDS011;61452;40.054;4.110;2023-02-27T19:27:30;27.80;;;6.03;;
73239;SDS011;61452;40.054;4.110;2023-02-27T19:32:32;26.25;;;5.78;;
73239;SDS011;61452;40.054;4.110;2023-02-27T19:37:35;33.47;;;6.55;;
73239;SDS011;61452;40.054;4.110;2023-02-27T19:42:37;36.13;;;5.82;;
73239;SDS011;61452;40.054;4.110;2023-02-27T19:47:39;29.23;;;6.55;;
73239;SDS011;61452;40.054;4.110;2023-02-27T19:52:41;30.15;;;4.95;;
73239;SDS011;61452;40.054;4.110;2023-02-27T19:57:43;26.42;;;5.03;;
73239;SDS011;61452;40.054;4.110;2023-02-27T20:02:45;27.42;;;5.90;;
73239;SDS011;61452;40.054;4.110;2023-02-27T20:07:48;30.23;;;6.55;;
73239;SDS011;61452;40.054;4.110;2023-02-27T20:12:50;26.58;;;5.20;;
73239;SDS011;61452;40.054;4.110;2023-02-27T20:17:53;31.25;;;5.72;;
73239;SDS011;61452;40.054;4.110;2023-02-27T20:22:55;35.78;;;7.20;;
73239;SDS011;61452;40.054;4.110;2023-02-27T20:27:58;27.83;;;6.70;;
73239;SDS011;61452;40.054;4.110;2023-02-27T20:33:00;39.13;;;6.32;;
73239;SDS011;61452;40.054;4.110;2023-02-27T20:38:03;40.42;;;8.73;;
73239;SDS011;61452;40.054;4.110;2023-02-27T20:43:06;38.00;;;8.13;;
73239;SDS011;61452;40.054;4.110;2023-02-27T20:48:09;43.42;;;8.38;;
73239;SDS011;61452;40.054;4.110;2023-02-27T20:53:11;32.38;;;6.43;;
73239;SDS011;61452;40.054;4.110;2023-02-27T20:58:14;42.03;;;7.70;;
73239;SDS011;61452;40.054;4.110;2023-02-27T21:03:17;29.95;;;6.60;;
73239;SDS011;61452;40.054;4.110;2023-02-27T21:08:19;50.03;;;9.43;;
73239;SDS011;61452;40.054;4.110;2023-02-27T21:13:21;34.40;;;7.20;;
73239;SDS011;61452;40.054;4.110;2023-02-27T21:18:24;43.30;;;8.95;;
73239;SDS011;61452;40.054;4.110;2023-02-27T21:23:26;42.00;;;8.80;;
73239;SDS011;61452;40.054;4.110;2023-02-27T21:28:28;47.80;;;11.32;;
73239;SDS011;61452;40.054;4.110;2023-02-27T21:33:31;45.05;;;10.93;;
73239;SDS011;61452;40.054;4.110;2023-02-27T21:38:33;48.75;;;9.55;;
73239;SDS011;61452;40.054;4.110;2023-02-27T21:43:35;48.20;;;8.57;;
73239;SDS011;61452;40.054;4.110;2023-02-27T21:48:37;49.28;;;11.60;;
73239;SDS011;61452;40.054;4.110;2023-02-27T21:53:40;49.40;;;10.20;;
73239;SDS011;61452;40.054;4.110;2023-02-27T21:58:42;55.22;;;11.07;;
73239;SDS011;61452;40.054;4.110;2023-02-27T22:03:45;45.72;;;8.80;;
73239;SDS011;61452;40.054;4.110;2023-02-27T22:08:51;50.38;;;9.82;;
73239;SDS011;61452;40.054;4.110;2023-02-27T22:13:54;47.67;;;10.73;;
73239;SDS011;61452;40.054;4.110;2023-02-27T22:18:56;40.42;;;9.27;;
73239;SDS011;61452;40.054;4.110;2023-02-27T22:23:58;41.65;;;10.20;;
73239;SDS011;61452;40.054;4.110;2023-02-27T22:29:01;55.70;;;11.73;;
73239;SDS011;61452;40.054;4.110;2023-02-27T22:34:09;46.92;;;10.18;;
73239;SDS011;61452;40.054;4.110;2023-02-27T22:58:41;45.72;;;9.85;;
73239;SDS011;61452;40.054;4.110;2023-02-27T23:03:45;40.08;;;8.73;;
73239;SDS011;61452;40.054;4.110;2023-02-27T23:08:49;36.50;;;9.20;;
73239;SDS011;61452;40.054;4.110;2023-02-27T23:13:51;39.20;;;8.15;;
73239;SDS011;61452;40.054;4.110;2023-02-27T23:18:55;38.35;;;8.35;;
73239;SDS011;61452;40.054;4.110;2023-02-27T23:24:03;48.53;;;9.60;;
73239;SDS011;61452;40.054;4.110;2023-02-27T23:29:07;29.73;;;6.00;;
73239;SDS011;61452;40.054;4.110;2023-02-27T23:34:10;52.17;;;9.48;;
73239;SDS011;61452;40.054;4.110;2023-02-27T23:39:12;41.45;;;7.53;;
73239;SDS011;61452;40.054;4.110;2023-02-27T23:44:14;43.50;;;8.60;;
73239;SDS011;61452;40.054;4.110;2023-02-27T23:49:16;31.90;;;7.43;;
73239;SDS011;61452;40.054;4.110;2023-02-27T23:54:19;38.90;;;7.47;;
73239;SDS011;61452;40.054;4.110;2023-02-27T23:59:21;33.67;;;6.20;;
